sensor_id;sensor_type;location;lat;lon;timestamp;temperature;humidity
21772;DHT22;11047;47.904;8.110;2022-08-21T00:01:24;12.60;99.90
21772;DHT22;11047;47.904;8.110;2022-08-21T00:03:51;12.60;99.90
21772;DHT22;11047;47.904;8.110;2022-08-21T00:06:18;12.50;99.90
21772;DHT22;11047;47.904;8.110;2022-08-21T00:08:47;12.50;99.90
21772;DHT22;11047;47.904;8.110;2022-08-21T00:11:14;12.40;99.90
21772;DHT22;11047;47.904;8.110;2022-08-21T00:13:41;12.40;99.90
21772;DHT22;11047;47.904;8.110;2022-08-21T00:16:08;12.30;99.90
21772;DHT22;11047;47.904;8.110;2022-08-21T00:18:35;12.30;99.90
21772;DHT22;11047;47.904;8.110;2022-08-21T00:21:03;12.20;99.90
21772;DHT22;11047;47.904;8.110;2022-08-21T00:23:30;12.20;99.90
21772;DHT22;11047;47.904;8.110;2022-08-21T00:25:58;12.20;99.90
21772;DHT22;11047;47.904;8.110;2022-08-21T00:28:25;12.20;99.90
21772;DHT22;11047;47.904;8.110;2022-08-21T00:30:52;12.10;99.90
21772;DHT22;11047;47.904;8.110;2022-08-21T00:33:19;12.10;99.90
21772;DHT22;11047;47.904;8.110;2022-08-21T00:35:46;12.10;99.90
21772;DHT22;11047;47.904;8.110;2022-08-21T00:38:13;12.00;99.90
21772;DHT22;11047;47.904;8.110;2022-08-21T00:40:43;12.10;99.90
21772;DHT22;11047;47.904;8.110;2022-08-21T00:43:13;12.10;99.90
21772;DHT22;11047;47.904;8.110;2022-08-21T00:45:40;12.10;99.90
21772;DHT22;11047;47.904;8.110;2022-08-21T00:48:07;12.10;99.90
21772;DHT22;11047;47.904;8.110;2022-08-21T00:50:40;12.00;99.90
21772;DHT22;11047;47.904;8.110;2022-08-21T00:53:09;12.00;99.90
21772;DHT22;11047;47.904;8.110;2022-08-21T00:55:37;11.90;99.90
21772;DHT22;11047;47.904;8.110;2022-08-21T00:58:07;11.80;99.90
21772;DHT22;11047;47.904;8.110;2022-08-21T01:00:39;11.80;99.90
21772;DHT22;11047;47.904;8.110;2022-08-21T01:03:09;11.70;99.90
21772;DHT22;11047;47.904;8.110;2022-08-21T01:05:37;11.70;99.90
21772;DHT22;11047;47.904;8.110;2022-08-21T01:08:05;11.60;99.90
21772;DHT22;11047;47.904;8.110;2022-08-21T01:10:33;11.60;99.90
21772;DHT22;11047;47.904;8.110;2022-08-21T01:13:01;11.80;99.90
21772;DHT22;11047;47.904;8.110;2022-08-21T01:15:32;11.60;99.90
21772;DHT22;11047;47.904;8.110;2022-08-21T01:18:02;11.50;99.90
21772;DHT22;11047;47.904;8.110;2022-08-21T01:20:30;11.50;99.90
21772;DHT22;11047;47.904;8.110;2022-08-21T01:22:58;11.40;99.90
21772;DHT22;11047;47.904;8.110;2022-08-21T01:25:25;11.30;99.90
21772;DHT22;11047;47.904;8.110;2022-08-21T01:27:52;11.30;99.90
21772;DHT22;11047;47.904;8.110;2022-08-21T01:30:22;11.30;99.90
21772;DHT22;11047;47.904;8.110;2022-08-21T01:32:50;11.20;99.90
21772;DHT22;11047;47.904;8.110;2022-08-21T01:35:19;11.10;99.90
21772;DHT22;11047;47.904;8.110;2022-08-21T01:37:47;11.10;99.90
21772;DHT22;11047;47.904;8.110;2022-08-21T01:40:16;11.20;99.90
21772;DHT22;11047;47.904;8.110;2022-08-21T01:42:44;11.10;99.90
21772;DHT22;11047;47.904;8.110;2022-08-21T01:45:11;11.10;99.90
21772;DHT22;11047;47.904;8.110;2022-08-21T01:47:38;11.10;99.90
21772;DHT22;11047;47.904;8.110;2022-08-21T01:50:08;11.10;99.90
21772;DHT22;11047;47.904;8.110;2022-08-21T01:52:35;11.10;99.90
21772;DHT22;11047;47.904;8.110;2022-08-21T01:55:03;11.10;99.90
21772;DHT22;11047;47.904;8.110;2022-08-21T01:57:32;11.10;99.90
21772;DHT22;11047;47.904;8.110;2022-08-21T02:00:00;11.10;99.90
21772;DHT22;11047;47.904;8.110;2022-08-21T02:02:27;11.00;99.90
21772;DHT22;11047;47.904;8.110;2022-08-21T02:04:54;11.00;99.90
21772;DHT22;11047;47.904;8.110;2022-08-21T02:07:20;11.10;99.90
21772;DHT22;11047;47.904;8.110;2022-08-21T02:09:47;11.10;99.90
21772;DHT22;11047;47.904;8.110;2022-08-21T02:12:14;11.20;99.90
21772;DHT22;11047;47.904;8.110;2022-08-21T02:14:42;11.20;99.90
21772;DHT22;11047;47.904;8.110;2022-08-21T02:17:09;11.20;99.90
21772;DHT22;11047;47.904;8.110;2022-08-21T02:19:36;11.20;99.90
21772;DHT22;11047;47.904;8.110;2022-08-21T02:22:04;11.10;99.90
21772;DHT22;11047;47.904;8.110;2022-08-21T02:24:31;11.00;99.90
21772;DHT22;11047;47.904;8.110;2022-08-21T02:26:57;11.10;99.90
21772;DHT22;11047;47.904;8.110;2022-08-21T02:29:24;10.90;99.90
21772;DHT22;11047;47.904;8.110;2022-08-21T02:31:52;10.90;99.90
21772;DHT22;11047;47.904;8.110;2022-08-21T02:34:19;10.90;99.90
21772;DHT22;11047;47.904;8.110;2022-08-21T02:36:46;10.90;99.90
21772;DHT22;11047;47.904;8.110;2022-08-21T02:39:13;10.90;99.90
21772;DHT22;11047;47.904;8.110;2022-08-21T02:41:40;10.90;99.90
21772;DHT22;11047;47.904;8.110;2022-08-21T02:44:07;10.80;99.90
21772;DHT22;11047;47.904;8.110;2022-08-21T02:46:34;10.80;99.90
21772;DHT22;11047;47.904;8.110;2022-08-21T02:49:02;10.70;99.90
21772;DHT22;11047;47.904;8.110;2022-08-21T02:51:29;10.70;99.90
21772;DHT22;11047;47.904;8.110;2022-08-21T02:53:56;10.70;99.90
21772;DHT22;11047;47.904;8.110;2022-08-21T02:56:23;10.70;99.90
21772;DHT22;11047;47.904;8.110;2022-08-21T02:58:51;10.70;99.90
21772;DHT22;11047;47.904;8.110;2022-08-21T03:01:19;10.70;99.90
21772;DHT22;11047;47.904;8.110;2022-08-21T03:03:47;10.60;99.90
21772;DHT22;11047;47.904;8.110;2022-08-21T03:06:19;10.50;99.90
21772;DHT22;11047;47.904;8.110;2022-08-21T03:08:46;10.40;99.90
21772;DHT22;11047;47.904;8.110;2022-08-21T03:11:14;10.40;99.90
21772;DHT22;11047;47.904;8.110;2022-08-21T03:13:41;10.40;99.90
21772;DHT22;11047;47.904;8.110;2022-08-21T03:16:08;10.40;99.90
21772;DHT22;11047;47.904;8.110;2022-08-21T03:18:36;10.40;99.90
21772;DHT22;11047;47.904;8.110;2022-08-21T03:21:03;10.30;99.90
21772;DHT22;11047;47.904;8.110;2022-08-21T03:23:32;10.40;99.90
21772;DHT22;11047;47.904;8.110;2022-08-21T03:25:59;10.40;99.90
21772;DHT22;11047;47.904;8.110;2022-08-21T03:28:26;10.30;99.90
21772;DHT22;11047;47.904;8.110;2022-08-21T03:30:53;10.30;99.90
21772;DHT22;11047;47.904;8.110;2022-08-21T03:33:21;10.20;99.90
21772;DHT22;11047;47.904;8.110;2022-08-21T03:35:55;10.20;99.90
21772;DHT22;11047;47.904;8.110;2022-08-21T03:38:23;10.00;99.90
21772;DHT22;11047;47.904;8.110;2022-08-21T03:40:52;9.90;99.90
21772;DHT22;11047;47.904;8.110;2022-08-21T03:43:19;9.90;99.90
21772;DHT22;11047;47.904;8.110;2022-08-21T03:45:46;10.00;99.90
21772;DHT22;11047;47.904;8.110;2022-08-21T03:48:13;10.00;99.90
21772;DHT22;11047;47.904;8.110;2022-08-21T03:50:42;9.90;99.90
21772;DHT22;11047;47.904;8.110;2022-08-21T03:53:11;9.90;99.90
21772;DHT22;11047;47.904;8.110;2022-08-21T03:55:39;9.90;99.90
21772;DHT22;11047;47.904;8.110;2022-08-21T03:58:07;9.90;99.90
21772;DHT22;11047;47.904;8.110;2022-08-21T04:00:34;9.90;99.90
21772;DHT22;11047;47.904;8.110;2022-08-21T04:03:03;9.90;99.90
21772;DHT22;11047;47.904;8.110;2022-08-21T04:05:30;9.80;99.90
21772;DHT22;11047;47.904;8.110;2022-08-21T04:07:59;9.80;99.90
21772;DHT22;11047;47.904;8.110;2022-08-21T04:10:28;9.80;99.90
21772;DHT22;11047;47.904;8.110;2022-08-21T04:12:56;9.80;99.90
21772;DHT22;11047;47.904;8.110;2022-08-21T04:15:25;9.80;99.90
21772;DHT22;11047;47.904;8.110;2022-08-21T04:17:53;9.80;99.90
21772;DHT22;11047;47.904;8.110;2022-08-21T04:20:20;9.90;99.90
21772;DHT22;11047;47.904;8.110;2022-08-21T04:22:48;9.90;99.90
21772;DHT22;11047;47.904;8.110;2022-08-21T04:25:16;9.90;99.90
21772;DHT22;11047;47.904;8.110;2022-08-21T04:27:44;9.90;99.90
21772;DHT22;11047;47.904;8.110;2022-08-21T04:30:12;9.90;99.90
21772;DHT22;11047;47.904;8.110;2022-08-21T04:32:43;9.70;99.90
21772;DHT22;11047;47.904;8.110;2022-08-21T04:35:11;9.60;99.90
21772;DHT22;11047;47.904;8.110;2022-08-21T04:37:38;9.60;99.90
21772;DHT22;11047;47.904;8.110;2022-08-21T04:40:06;9.50;99.90
21772;DHT22;11047;47.904;8.110;2022-08-21T04:42:42;9.60;99.90
21772;DHT22;11047;47.904;8.110;2022-08-21T04:45:16;9.60;99.90
21772;DHT22;11047;47.904;8.110;2022-08-21T04:47:48;9.60;99.90
21772;DHT22;11047;47.904;8.110;2022-08-21T04:50:15;9.60;99.90
21772;DHT22;11047;47.904;8.110;2022-08-21T04:52:43;9.60;99.90
21772;DHT22;11047;47.904;8.110;2022-08-21T04:55:10;9.60;99.90
21772;DHT22;11047;47.904;8.110;2022-08-21T04:57:38;9.60;99.90
21772;DHT22;11047;47.904;8.110;2022-08-21T05:00:07;9.60;99.90
21772;DHT22;11047;47.904;8.110;2022-08-21T05:02:37;9.70;99.90
21772;DHT22;11047;47.904;8.110;2022-08-21T05:05:07;9.60;99.90
21772;DHT22;11047;47.904;8.110;2022-08-21T05:07:34;9.70;99.90
21772;DHT22;11047;47.904;8.110;2022-08-21T05:10:03;9.70;99.90
21772;DHT22;11047;47.904;8.110;2022-08-21T05:12:31;9.70;99.90
21772;DHT22;11047;47.904;8.110;2022-08-21T05:14:58;9.70;99.90
21772;DHT22;11047;47.904;8.110;2022-08-21T05:17:25;9.70;99.90
21772;DHT22;11047;47.904;8.110;2022-08-21T05:19:52;9.60;99.90
21772;DHT22;11047;47.904;8.110;2022-08-21T05:22:22;9.70;99.90
21772;DHT22;11047;47.904;8.110;2022-08-21T05:24:50;9.70;99.90
21772;DHT22;11047;47.904;8.110;2022-08-21T05:27:17;9.70;99.90
21772;DHT22;11047;47.904;8.110;2022-08-21T05:29:44;9.70;99.90
21772;DHT22;11047;47.904;8.110;2022-08-21T05:32:12;9.80;99.90
21772;DHT22;11047;47.904;8.110;2022-08-21T05:34:39;9.70;99.90
21772;DHT22;11047;47.904;8.110;2022-08-21T05:37:06;9.70;99.90
21772;DHT22;11047;47.904;8.110;2022-08-21T05:39:34;9.70;99.90
21772;DHT22;11047;47.904;8.110;2022-08-21T05:42:01;9.70;99.90
21772;DHT22;11047;47.904;8.110;2022-08-21T05:44:28;9.70;99.90
21772;DHT22;11047;47.904;8.110;2022-08-21T05:47:01;9.70;99.90
21772;DHT22;11047;47.904;8.110;2022-08-21T05:49:28;9.90;99.90
21772;DHT22;11047;47.904;8.110;2022-08-21T05:51:54;9.90;99.90
21772;DHT22;11047;47.904;8.110;2022-08-21T05:54:21;10.00;99.90
21772;DHT22;11047;47.904;8.110;2022-08-21T05:56:49;10.20;99.90
21772;DHT22;11047;47.904;8.110;2022-08-21T05:59:17;10.20;99.90
21772;DHT22;11047;47.904;8.110;2022-08-21T06:01:44;10.20;99.90
21772;DHT22;11047;47.904;8.110;2022-08-21T06:04:11;10.30;99.90
21772;DHT22;11047;47.904;8.110;2022-08-21T06:06:38;10.40;99.90
21772;DHT22;11047;47.904;8.110;2022-08-21T06:09:05;10.40;99.90
21772;DHT22;11047;47.904;8.110;2022-08-21T06:11:33;10.50;99.90
21772;DHT22;11047;47.904;8.110;2022-08-21T06:14:01;10.60;99.90
21772;DHT22;11047;47.904;8.110;2022-08-21T06:16:29;10.70;99.90
21772;DHT22;11047;47.904;8.110;2022-08-21T06:18:56;10.80;99.90
21772;DHT22;11047;47.904;8.110;2022-08-21T06:21:23;10.90;99.90
21772;DHT22;11047;47.904;8.110;2022-08-21T06:23:50;11.00;99.90
21772;DHT22;11047;47.904;8.110;2022-08-21T06:26:17;11.00;99.90
21772;DHT22;11047;47.904;8.110;2022-08-21T06:28:44;11.20;99.90
21772;DHT22;11047;47.904;8.110;2022-08-21T06:31:14;11.20;99.90
21772;DHT22;11047;47.904;8.110;2022-08-21T06:33:42;11.30;99.90
21772;DHT22;11047;47.904;8.110;2022-08-21T06:36:09;11.40;99.90
21772;DHT22;11047;47.904;8.110;2022-08-21T06:38:36;11.50;99.90
21772;DHT22;11047;47.904;8.110;2022-08-21T06:41:04;11.60;99.90
21772;DHT22;11047;47.904;8.110;2022-08-21T06:43:31;11.70;99.90
21772;DHT22;11047;47.904;8.110;2022-08-21T06:45:57;11.80;99.90
21772;DHT22;11047;47.904;8.110;2022-08-21T06:48:26;11.90;99.90
21772;DHT22;11047;47.904;8.110;2022-08-21T06:50:53;12.00;99.90
21772;DHT22;11047;47.904;8.110;2022-08-21T06:53:21;12.10;99.90
21772;DHT22;11047;47.904;8.110;2022-08-21T06:55:48;12.20;99.90
21772;DHT22;11047;47.904;8.110;2022-08-21T06:58:15;12.40;99.90
21772;DHT22;11047;47.904;8.110;2022-08-21T07:00:46;12.60;99.90
21772;DHT22;11047;47.904;8.110;2022-08-21T07:03:18;12.80;99.90
21772;DHT22;11047;47.904;8.110;2022-08-21T07:05:46;13.00;99.90
21772;DHT22;11047;47.904;8.110;2022-08-21T07:08:13;13.10;99.90
21772;DHT22;11047;47.904;8.110;2022-08-21T07:10:40;13.50;99.90
21772;DHT22;11047;47.904;8.110;2022-08-21T07:13:07;14.20;99.90
21772;DHT22;11047;47.904;8.110;2022-08-21T07:15:34;14.70;99.90
21772;DHT22;11047;47.904;8.110;2022-08-21T07:18:01;16.60;99.90
21772;DHT22;11047;47.904;8.110;2022-08-21T07:20:30;21.20;99.90
21772;DHT22;11047;47.904;8.110;2022-08-21T07:23:01;24.40;99.90
21772;DHT22;11047;47.904;8.110;2022-08-21T07:25:28;27.60;99.90
21772;DHT22;11047;47.904;8.110;2022-08-21T07:27:55;29.00;99.90
21772;DHT22;11047;47.904;8.110;2022-08-21T07:30:23;29.10;99.90
21772;DHT22;11047;47.904;8.110;2022-08-21T07:32:50;30.50;99.90
21772;DHT22;11047;47.904;8.110;2022-08-21T07:35:18;29.00;99.90
21772;DHT22;11047;47.904;8.110;2022-08-21T07:37:45;26.10;99.90
21772;DHT22;11047;47.904;8.110;2022-08-21T07:40:14;23.80;99.90
21772;DHT22;11047;47.904;8.110;2022-08-21T07:42:43;22.30;99.90
21772;DHT22;11047;47.904;8.110;2022-08-21T07:45:11;24.40;99.90
21772;DHT22;11047;47.904;8.110;2022-08-21T07:47:38;24.00;99.90
21772;DHT22;11047;47.904;8.110;2022-08-21T07:50:06;23.00;99.90
21772;DHT22;11047;47.904;8.110;2022-08-21T07:52:33;21.70;99.90
21772;DHT22;11047;47.904;8.110;2022-08-21T07:55:00;22.20;99.90
21772;DHT22;11047;47.904;8.110;2022-08-21T07:57:29;21.40;99.90
21772;DHT22;11047;47.904;8.110;2022-08-21T07:59:55;20.70;99.90
21772;DHT22;11047;47.904;8.110;2022-08-21T08:02:27;20.00;99.90
21772;DHT22;11047;47.904;8.110;2022-08-21T08:04:54;19.70;99.90
21772;DHT22;11047;47.904;8.110;2022-08-21T08:07:24;19.20;99.90
21772;DHT22;11047;47.904;8.110;2022-08-21T08:09:51;18.90;99.90
21772;DHT22;11047;47.904;8.110;2022-08-21T08:12:18;18.70;99.90
21772;DHT22;11047;47.904;8.110;2022-08-21T08:14:48;18.50;99.90
21772;DHT22;11047;47.904;8.110;2022-08-21T08:17:15;18.40;99.90
21772;DHT22;11047;47.904;8.110;2022-08-21T08:19:41;18.70;99.90
21772;DHT22;11047;47.904;8.110;2022-08-21T08:22:15;19.10;99.90
21772;DHT22;11047;47.904;8.110;2022-08-21T08:24:44;19.40;99.90
21772;DHT22;11047;47.904;8.110;2022-08-21T08:27:11;19.80;99.90
21772;DHT22;11047;47.904;8.110;2022-08-21T08:29:39;20.10;99.90
21772;DHT22;11047;47.904;8.110;2022-08-21T08:32:07;20.40;99.90
21772;DHT22;11047;47.904;8.110;2022-08-21T08:34:35;20.80;99.90
21772;DHT22;11047;47.904;8.110;2022-08-21T08:37:02;21.00;99.90
21772;DHT22;11047;47.904;8.110;2022-08-21T08:39:30;21.30;99.90
21772;DHT22;11047;47.904;8.110;2022-08-21T08:42:03;21.60;99.90
21772;DHT22;11047;47.904;8.110;2022-08-21T08:44:31;21.70;99.90
21772;DHT22;11047;47.904;8.110;2022-08-21T08:46:59;21.90;99.90
21772;DHT22;11047;47.904;8.110;2022-08-21T08:49:32;21.90;99.90
21772;DHT22;11047;47.904;8.110;2022-08-21T08:52:03;22.10;99.90
21772;DHT22;11047;47.904;8.110;2022-08-21T08:54:34;22.30;99.90
21772;DHT22;11047;47.904;8.110;2022-08-21T08:57:07;22.60;99.90
21772;DHT22;11047;47.904;8.110;2022-08-21T08:59:39;22.50;99.90
21772;DHT22;11047;47.904;8.110;2022-08-21T09:02:09;22.10;99.90
21772;DHT22;11047;47.904;8.110;2022-08-21T09:04:38;22.40;99.90
21772;DHT22;11047;47.904;8.110;2022-08-21T09:07:12;22.60;99.90
21772;DHT22;11047;47.904;8.110;2022-08-21T09:09:51;22.90;99.90
21772;DHT22;11047;47.904;8.110;2022-08-21T09:12:33;22.90;99.90
21772;DHT22;11047;47.904;8.110;2022-08-21T09:15:09;23.30;99.90
21772;DHT22;11047;47.904;8.110;2022-08-21T09:17:55;23.40;99.90
21772;DHT22;11047;47.904;8.110;2022-08-21T09:20:35;23.50;99.90
21772;DHT22;11047;47.904;8.110;2022-08-21T09:23:11;23.50;99.90
21772;DHT22;11047;47.904;8.110;2022-08-21T09:25:43;23.80;99.90
21772;DHT22;11047;47.904;8.110;2022-08-21T09:28:12;23.90;99.90
21772;DHT22;11047;47.904;8.110;2022-08-21T09:30:40;23.90;99.90
21772;DHT22;11047;47.904;8.110;2022-08-21T09:33:09;24.00;99.90
21772;DHT22;11047;47.904;8.110;2022-08-21T09:35:48;24.10;99.90
21772;DHT22;11047;47.904;8.110;2022-08-21T09:38:25;24.40;99.90
21772;DHT22;11047;47.904;8.110;2022-08-21T09:40:57;24.30;99.90
21772;DHT22;11047;47.904;8.110;2022-08-21T09:43:25;24.50;99.90
21772;DHT22;11047;47.904;8.110;2022-08-21T09:46:04;24.40;99.90
21772;DHT22;11047;47.904;8.110;2022-08-21T09:48:39;24.00;99.90
21772;DHT22;11047;47.904;8.110;2022-08-21T09:51:10;24.10;99.90
21772;DHT22;11047;47.904;8.110;2022-08-21T09:53:42;24.00;99.90
21772;DHT22;11047;47.904;8.110;2022-08-21T09:56:19;24.10;99.90
21772;DHT22;11047;47.904;8.110;2022-08-21T09:59:15;24.60;99.90
21772;DHT22;11047;47.904;8.110;2022-08-21T10:01:44;24.20;99.90
21772;DHT22;11047;47.904;8.110;2022-08-21T10:04:11;24.10;99.90
21772;DHT22;11047;47.904;8.110;2022-08-21T10:06:40;23.90;99.90
21772;DHT22;11047;47.904;8.110;2022-08-21T10:09:10;23.60;99.90
21772;DHT22;11047;47.904;8.110;2022-08-21T10:11:37;23.50;99.90
21772;DHT22;11047;47.904;8.110;2022-08-21T10:14:13;23.40;99.90
21772;DHT22;11047;47.904;8.110;2022-08-21T10:16:52;23.50;99.90
21772;DHT22;11047;47.904;8.110;2022-08-21T10:19:29;23.40;99.90
21772;DHT22;11047;47.904;8.110;2022-08-21T10:22:05;23.80;99.90
21772;DHT22;11047;47.904;8.110;2022-08-21T10:24:36;23.40;99.90
21772;DHT22;11047;47.904;8.110;2022-08-21T10:27:16;23.20;99.90
21772;DHT22;11047;47.904;8.110;2022-08-21T10:29:51;23.00;99.90
21772;DHT22;11047;47.904;8.110;2022-08-21T10:32:31;23.10;99.90
21772;DHT22;11047;47.904;8.110;2022-08-21T10:35:08;23.80;99.90
21772;DHT22;11047;47.904;8.110;2022-08-21T10:37:46;24.40;99.90
21772;DHT22;11047;47.904;8.110;2022-08-21T10:40:22;24.60;99.90
21772;DHT22;11047;47.904;8.110;2022-08-21T10:43:00;24.50;99.90
21772;DHT22;11047;47.904;8.110;2022-08-21T10:48:25;24.70;99.90
21772;DHT22;11047;47.904;8.110;2022-08-21T10:50:58;25.20;99.90
21772;DHT22;11047;47.904;8.110;2022-08-21T10:53:41;25.00;99.90
21772;DHT22;11047;47.904;8.110;2022-08-21T10:56:16;24.60;99.90
21772;DHT22;11047;47.904;8.110;2022-08-21T11:01:44;24.30;99.90
21772;DHT22;11047;47.904;8.110;2022-08-21T11:04:19;23.80;99.90
21772;DHT22;11047;47.904;8.110;2022-08-21T11:06:49;23.60;99.90
21772;DHT22;11047;47.904;8.110;2022-08-21T11:09:22;23.60;99.90
21772;DHT22;11047;47.904;8.110;2022-08-21T11:11:55;23.50;99.90
21772;DHT22;11047;47.904;8.110;2022-08-21T11:14:31;23.30;99.90
21772;DHT22;11047;47.904;8.110;2022-08-21T11:17:05;23.20;99.90
21772;DHT22;11047;47.904;8.110;2022-08-21T11:19:36;23.20;99.90
21772;DHT22;11047;47.904;8.110;2022-08-21T11:22:12;23.10;99.90
21772;DHT22;11047;47.904;8.110;2022-08-21T11:24:46;23.00;99.90
21772;DHT22;11047;47.904;8.110;2022-08-21T11:27:21;23.00;99.90
21772;DHT22;11047;47.904;8.110;2022-08-21T11:29:53;22.90;99.90
21772;DHT22;11047;47.904;8.110;2022-08-21T11:32:31;23.00;99.90
21772;DHT22;11047;47.904;8.110;2022-08-21T11:35:06;23.60;99.90
21772;DHT22;11047;47.904;8.110;2022-08-21T11:37:54;23.70;99.90
21772;DHT22;11047;47.904;8.110;2022-08-21T11:40:37;24.30;99.90
21772;DHT22;11047;47.904;8.110;2022-08-21T11:43:12;24.40;99.90
21772;DHT22;11047;47.904;8.110;2022-08-21T11:45:46;24.60;99.90
21772;DHT22;11047;47.904;8.110;2022-08-21T11:48:27;24.70;99.90
21772;DHT22;11047;47.904;8.110;2022-08-21T11:50:58;24.60;99.90
21772;DHT22;11047;47.904;8.110;2022-08-21T11:53:33;25.00;99.90
21772;DHT22;11047;47.904;8.110;2022-08-21T11:56:07;25.00;99.90
21772;DHT22;11047;47.904;8.110;2022-08-21T11:58:39;25.20;99.90
21772;DHT22;11047;47.904;8.110;2022-08-21T12:01:09;25.40;99.90
21772;DHT22;11047;47.904;8.110;2022-08-21T12:03:40;25.40;99.90
21772;DHT22;11047;47.904;8.110;2022-08-21T12:06:10;25.70;99.90
21772;DHT22;11047;47.904;8.110;2022-08-21T12:08:38;25.40;99.90
21772;DHT22;11047;47.904;8.110;2022-08-21T12:11:08;25.30;99.90
21772;DHT22;11047;47.904;8.110;2022-08-21T12:13:38;25.30;99.90
21772;DHT22;11047;47.904;8.110;2022-08-21T12:16:07;25.50;99.90
21772;DHT22;11047;47.904;8.110;2022-08-21T12:18:35;25.50;99.90
21772;DHT22;11047;47.904;8.110;2022-08-21T12:21:16;24.80;99.90
21772;DHT22;11047;47.904;8.110;2022-08-21T12:23:47;24.10;99.90
21772;DHT22;11047;47.904;8.110;2022-08-21T12:26:24;23.60;99.90
21772;DHT22;11047;47.904;8.110;2022-08-21T12:29:13;23.30;99.90
21772;DHT22;11047;47.904;8.110;2022-08-21T12:31:56;23.20;99.90
21772;DHT22;11047;47.904;8.110;2022-08-21T12:34:30;22.80;99.90
21772;DHT22;11047;47.904;8.110;2022-08-21T12:37:02;22.80;99.90
21772;DHT22;11047;47.904;8.110;2022-08-21T12:39:32;23.20;99.90
21772;DHT22;11047;47.904;8.110;2022-08-21T12:42:06;23.30;99.90
21772;DHT22;11047;47.904;8.110;2022-08-21T12:44:37;23.20;99.90
21772;DHT22;11047;47.904;8.110;2022-08-21T12:47:14;22.90;99.90
21772;DHT22;11047;47.904;8.110;2022-08-21T12:49:51;22.90;99.90
21772;DHT22;11047;47.904;8.110;2022-08-21T12:52:22;23.30;99.90
21772;DHT22;11047;47.904;8.110;2022-08-21T12:54:50;23.70;99.90
21772;DHT22;11047;47.904;8.110;2022-08-21T12:57:22;24.10;99.90
21772;DHT22;11047;47.904;8.110;2022-08-21T12:59:54;24.00;99.90
21772;DHT22;11047;47.904;8.110;2022-08-21T13:02:25;24.00;99.90
21772;DHT22;11047;47.904;8.110;2022-08-21T13:04:53;24.00;99.90
21772;DHT22;11047;47.904;8.110;2022-08-21T13:07:28;23.90;99.90
21772;DHT22;11047;47.904;8.110;2022-08-21T13:09:58;24.00;99.90
21772;DHT22;11047;47.904;8.110;2022-08-21T13:12:33;24.10;99.90
21772;DHT22;11047;47.904;8.110;2022-08-21T13:15:04;24.20;99.90
21772;DHT22;11047;47.904;8.110;2022-08-21T13:17:36;24.10;99.90
21772;DHT22;11047;47.904;8.110;2022-08-21T13:20:09;24.10;99.90
21772;DHT22;11047;47.904;8.110;2022-08-21T13:22:41;24.00;99.90
21772;DHT22;11047;47.904;8.110;2022-08-21T13:25:10;24.20;99.90
21772;DHT22;11047;47.904;8.110;2022-08-21T13:27:40;24.00;99.90
21772;DHT22;11047;47.904;8.110;2022-08-21T13:30:11;24.10;99.90
21772;DHT22;11047;47.904;8.110;2022-08-21T13:32:41;24.20;99.90
21772;DHT22;11047;47.904;8.110;2022-08-21T13:35:11;24.00;99.90
21772;DHT22;11047;47.904;8.110;2022-08-21T13:37:42;24.20;99.90
21772;DHT22;11047;47.904;8.110;2022-08-21T13:40:12;24.30;99.90
21772;DHT22;11047;47.904;8.110;2022-08-21T13:42:46;24.30;99.90
21772;DHT22;11047;47.904;8.110;2022-08-21T13:45:22;24.40;99.90
21772;DHT22;11047;47.904;8.110;2022-08-21T13:47:50;24.40;99.90
21772;DHT22;11047;47.904;8.110;2022-08-21T13:50:21;24.70;99.90
21772;DHT22;11047;47.904;8.110;2022-08-21T13:52:56;24.60;99.90
21772;DHT22;11047;47.904;8.110;2022-08-21T13:55:26;24.70;99.90
21772;DHT22;11047;47.904;8.110;2022-08-21T13:58:05;24.80;99.90
21772;DHT22;11047;47.904;8.110;2022-08-21T14:00:43;24.90;99.90
21772;DHT22;11047;47.904;8.110;2022-08-21T14:03:11;24.90;99.90
21772;DHT22;11047;47.904;8.110;2022-08-21T14:05:45;24.50;99.90
21772;DHT22;11047;47.904;8.110;2022-08-21T14:08:14;24.40;99.90
21772;DHT22;11047;47.904;8.110;2022-08-21T14:10:45;24.50;99.90
21772;DHT22;11047;47.904;8.110;2022-08-21T14:13:34;24.40;99.90
21772;DHT22;11047;47.904;8.110;2022-08-21T14:16:03;24.40;99.90
21772;DHT22;11047;47.904;8.110;2022-08-21T14:18:44;24.00;99.90
21772;DHT22;11047;47.904;8.110;2022-08-21T14:21:11;23.90;99.90
21772;DHT22;11047;47.904;8.110;2022-08-21T14:23:39;24.10;99.90
21772;DHT22;11047;47.904;8.110;2022-08-21T14:26:07;23.80;99.90
21772;DHT22;11047;47.904;8.110;2022-08-21T14:28:39;24.20;99.90
21772;DHT22;11047;47.904;8.110;2022-08-21T14:31:16;24.10;99.90
21772;DHT22;11047;47.904;8.110;2022-08-21T14:33:44;23.20;99.90
21772;DHT22;11047;47.904;8.110;2022-08-21T14:36:11;23.10;99.90
21772;DHT22;11047;47.904;8.110;2022-08-21T14:38:40;23.40;99.90
21772;DHT22;11047;47.904;8.110;2022-08-21T14:41:13;23.60;99.90
21772;DHT22;11047;47.904;8.110;2022-08-21T14:43:44;23.70;99.90
21772;DHT22;11047;47.904;8.110;2022-08-21T14:46:13;23.90;99.90
21772;DHT22;11047;47.904;8.110;2022-08-21T14:48:44;23.90;99.90
21772;DHT22;11047;47.904;8.110;2022-08-21T14:51:12;23.90;99.90
21772;DHT22;11047;47.904;8.110;2022-08-21T14:53:40;24.00;99.90
21772;DHT22;11047;47.904;8.110;2022-08-21T14:56:07;24.30;99.90
21772;DHT22;11047;47.904;8.110;2022-08-21T14:58:38;24.00;99.90
21772;DHT22;11047;47.904;8.110;2022-08-21T15:01:08;24.00;99.90
21772;DHT22;11047;47.904;8.110;2022-08-21T15:03:35;23.90;99.90
21772;DHT22;11047;47.904;8.110;2022-08-21T15:06:04;24.00;99.90
21772;DHT22;11047;47.904;8.110;2022-08-21T15:08:31;24.10;99.90
21772;DHT22;11047;47.904;8.110;2022-08-21T15:10:59;23.80;99.90
21772;DHT22;11047;47.904;8.110;2022-08-21T15:13:26;23.70;99.90
21772;DHT22;11047;47.904;8.110;2022-08-21T15:15:53;23.50;99.90
21772;DHT22;11047;47.904;8.110;2022-08-21T15:18:25;23.50;99.90
21772;DHT22;11047;47.904;8.110;2022-08-21T15:20:52;23.60;99.90
21772;DHT22;11047;47.904;8.110;2022-08-21T15:23:19;23.70;99.90
21772;DHT22;11047;47.904;8.110;2022-08-21T15:25:48;23.70;99.90
21772;DHT22;11047;47.904;8.110;2022-08-21T15:28:16;23.40;99.90
21772;DHT22;11047;47.904;8.110;2022-08-21T15:30:44;23.50;99.90
21772;DHT22;11047;47.904;8.110;2022-08-21T15:33:11;23.20;99.90
21772;DHT22;11047;47.904;8.110;2022-08-21T15:35:40;23.20;99.90
21772;DHT22;11047;47.904;8.110;2022-08-21T15:38:07;23.20;99.90
21772;DHT22;11047;47.904;8.110;2022-08-21T15:40:34;23.10;99.90
21772;DHT22;11047;47.904;8.110;2022-08-21T15:43:03;23.10;99.90
21772;DHT22;11047;47.904;8.110;2022-08-21T15:45:32;23.10;99.90
21772;DHT22;11047;47.904;8.110;2022-08-21T15:47:59;23.10;99.90
21772;DHT22;11047;47.904;8.110;2022-08-21T15:50:28;22.90;99.90
21772;DHT22;11047;47.904;8.110;2022-08-21T15:52:58;22.80;99.90
21772;DHT22;11047;47.904;8.110;2022-08-21T15:55:25;22.60;99.90